createdAt,value
2023-05-15T00:00:07.502Z,70.90
2023-05-15T00:05:20.963Z,70.80
2023-05-15T00:07:52.448Z,71.10
2023-05-15T00:10:23.746Z,70.10
2023-05-15T00:12:55.238Z,71.30
2023-05-15T00:15:27.192Z,72.10
2023-05-15T00:17:58.710Z,70.00
2023-05-15T00:20:32.586Z,71.00
2023-05-15T00:23:04.967Z,70.60
2023-05-15T00:25:36.004Z,70.40
2023-05-15T00:28:07.227Z,68.90
2023-05-15T00:30:38.279Z,69.80
2023-05-15T00:33:09.344Z,71.50
2023-05-15T00:35:42.948Z,70.90
2023-05-15T00:38:14.600Z,69.40
2023-05-15T00:40:46.687Z,68.40
2023-05-15T00:43:19.366Z,70.30
2023-05-15T00:45:51.867Z,69.10
2023-05-15T00:48:25.205Z,69.30
2023-05-15T00:51:01.044Z,70.30
2023-05-15T00:53:32.463Z,71.00
2023-05-15T00:56:04.455Z,70.50
2023-05-15T00:58:39.197Z,71.50
2023-05-15T01:01:10.538Z,68.50
2023-05-15T01:03:42.050Z,69.70
2023-05-15T01:06:15.315Z,70.20
2023-05-15T01:08:49.740Z,67.50
2023-05-15T01:11:21.942Z,69.00
2023-05-15T01:13:52.971Z,67.20
2023-05-15T01:16:25.697Z,65.10
2023-05-15T01:18:57.245Z,65.30
2023-05-15T01:22:21.407Z,65.50
2023-05-15T01:25:15.343Z,64.40
2023-05-15T01:27:50.871Z,65.40
2023-05-15T01:30:26.450Z,65.50
2023-05-15T01:33:05.206Z,63.40
2023-05-15T01:35:41.708Z,64.40
2023-05-15T01:38:19.550Z,65.00
2023-05-15T01:40:54.679Z,61.20
2023-05-15T01:43:33.970Z,61.30
2023-05-15T01:46:05.679Z,62.50
2023-05-15T01:48:39.012Z,63.40
2023-05-15T01:51:14.342Z,62.60
2023-05-15T01:53:47.680Z,64.10
2023-05-15T01:56:20.932Z,62.60
2023-05-15T01:58:55.907Z,63.80
2023-05-15T02:01:27.932Z,62.40
2023-05-15T02:04:00.049Z,65.60
2023-05-15T02:06:32.376Z,65.30
2023-05-15T02:09:06.825Z,64.90
2023-05-15T02:11:38.396Z,67.50
2023-05-15T02:14:15.007Z,65.80
2023-05-15T02:16:46.379Z,66.70
2023-05-15T02:19:17.881Z,64.10
2023-05-15T02:21:49.207Z,66.70
2023-05-15T02:24:20.527Z,66.30
2023-05-15T02:27:00.190Z,66.90
2023-05-15T02:29:39.748Z,66.90
2023-05-15T02:32:17.816Z,65.50
2023-05-15T02:34:56.398Z,67.20
2023-05-15T02:37:33.597Z,68.90
2023-05-15T02:40:08.277Z,66.10
2023-05-15T02:42:41.042Z,65.60
2023-05-15T02:45:15.315Z,66.40
2023-05-15T02:47:46.656Z,66.70
2023-05-15T02:50:18.526Z,67.70
2023-05-15T02:52:49.842Z,69.40
2023-05-15T02:55:21.531Z,70.80
2023-05-15T02:57:52.363Z,72.20
2023-05-15T03:00:26.681Z,74.10
2023-05-15T03:02:58.367Z,73.10
2023-05-15T03:05:30.145Z,71.00
2023-05-15T03:08:01.414Z,70.00
2023-05-15T03:10:32.588Z,71.20
2023-05-15T03:13:07.486Z,72.30
2023-05-15T04:31:09.812Z,90.70
2023-05-15T04:34:02.836Z,91.20
2023-05-15T04:36:58.908Z,91.30
2023-05-15T04:39:54.557Z,91.50
2023-05-15T04:42:27.611Z,91.10
2023-05-15T04:45:04.801Z,91.80
2023-05-15T04:47:50.517Z,91.80
2023-05-15T04:53:26.832Z,92.30
2023-05-15T05:10:00.421Z,92.80
2023-05-15T05:23:23.073Z,93.50
2023-05-15T05:25:57.741Z,93.30
2023-05-15T05:28:29.656Z,93.70
2023-05-15T05:31:01.384Z,93.50
2023-05-15T05:33:32.863Z,93.40
2023-05-15T05:39:06.931Z,93.70
2023-05-15T05:46:58.624Z,93.70
2023-05-15T05:49:31.277Z,93.70
2023-05-15T05:52:11.378Z,94.10
2023-05-15T05:54:43.439Z,94.60
2023-05-15T05:57:15.628Z,94.60
2023-05-15T05:59:48.061Z,94.60
2023-05-15T06:02:24.019Z,94.90
2023-05-15T06:08:05.578Z,95.30
2023-05-15T11:36:11.294Z,99.90
2023-05-15T11:38:44.792Z,99.90
2023-05-15T15:41:39.899Z,99.90
2023-05-15T15:44:15.259Z,99.90
2023-05-15T16:38:06.208Z,99.90
2023-05-15T16:40:37.688Z,99.90
2023-05-15T16:43:08.613Z,99.90
2023-05-15T16:45:39.935Z,99.90
2023-05-15T16:48:11.284Z,99.90
2023-05-15T16:50:46.106Z,99.90
2023-05-15T16:53:19.836Z,99.90
2023-05-15T16:55:52.666Z,99.90
2023-05-15T16:58:24.065Z,99.90
2023-05-15T17:00:55.692Z,99.90
2023-05-15T17:03:27.352Z,99.90
2023-05-15T17:05:58.153Z,99.90
2023-05-15T17:08:31.547Z,99.90
2023-05-15T17:11:03.628Z,99.90
2023-05-15T17:13:35.184Z,99.90
2023-05-15T17:16:06.771Z,99.90
2023-05-15T17:18:40.934Z,99.90
2023-05-15T17:21:13.124Z,99.90
2023-05-15T17:23:46.753Z,99.90
2023-05-15T17:26:19.172Z,99.90
2023-05-15T17:28:50.369Z,99.90
2023-05-15T17:31:22.093Z,99.90
2023-05-15T17:33:53.452Z,99.90
2023-05-15T17:36:24.932Z,99.90
2023-05-15T17:39:00.678Z,99.90
2023-05-15T17:41:31.919Z,99.90
2023-05-15T17:44:03.736Z,99.90
2023-05-15T17:46:35.614Z,99.90
2023-05-15T17:49:08.168Z,99.90
2023-05-15T17:51:39.092Z,99.90
2023-05-15T17:54:12.268Z,99.90
2023-05-15T17:56:43.828Z,99.90
2023-05-15T17:59:18.438Z,99.90
2023-05-15T18:01:49.855Z,99.90
2023-05-15T18:04:21.223Z,99.90
2023-05-15T18:06:52.355Z,99.90
2023-05-15T18:09:25.619Z,99.90
2023-05-15T18:11:56.740Z,99.90
2023-05-15T18:14:28.130Z,99.90
2023-05-15T18:16:59.379Z,99.90
2023-05-15T18:19:30.883Z,99.90
2023-05-15T18:22:04.272Z,99.90
2023-05-15T18:24:37.415Z,99.90
2023-05-15T18:27:08.767Z,99.90
2023-05-15T18:29:40.402Z,99.90
2023-05-15T18:32:11.890Z,99.90
2023-05-15T18:34:42.664Z,99.90
2023-05-15T18:37:14.082Z,99.90
2023-05-15T18:39:49.066Z,99.90
2023-05-15T18:42:20.235Z,99.90
2023-05-15T18:44:51.726Z,99.90
2023-05-15T18:47:23.715Z,99.90
2023-05-15T18:49:55.232Z,99.90
2023-05-15T18:52:27.912Z,99.90
2023-05-15T18:55:02.331Z,99.90
2023-05-15T18:57:33.374Z,99.90
2023-05-15T19:00:04.786Z,99.90
2023-05-15T19:02:36.939Z,99.90
2023-05-15T19:05:08.548Z,99.90
2023-05-15T19:07:39.693Z,99.90
2023-05-15T19:10:15.153Z,99.90
2023-05-15T19:12:47.766Z,99.90
2023-05-15T19:15:20.021Z,99.90
2023-05-15T19:17:50.791Z,99.90
2023-05-15T19:20:21.691Z,99.90
2023-05-15T19:22:52.829Z,99.90
2023-05-15T19:25:27.564Z,99.90
2023-05-15T19:27:58.592Z,99.90
2023-05-15T19:30:30.527Z,99.90
2023-05-15T19:33:02.795Z,99.90
2023-05-15T19:35:36.697Z,99.90
2023-05-15T19:38:09.492Z,99.90
2023-05-15T19:40:46.144Z,99.50
2023-05-15T19:43:16.968Z,99.90
2023-05-15T19:45:47.953Z,99.90
2023-05-15T19:48:20.049Z,99.20
2023-05-15T19:50:51.131Z,99.10
2023-05-15T19:53:22.691Z,98.20
2023-05-15T19:56:09.893Z,96.90
2023-05-15T19:58:41.761Z,96.70
2023-05-15T20:01:13.138Z,97.80
2023-05-15T20:03:44.260Z,98.60
2023-05-15T20:06:15.884Z,96.40
2023-05-15T20:08:47.076Z,96.10
2023-05-15T20:11:20.378Z,96.60
2023-05-15T20:13:51.915Z,96.00
2023-05-15T20:16:22.697Z,96.60
2023-05-15T20:18:56.098Z,95.90
2023-05-15T20:21:27.328Z,95.20
2023-05-15T20:23:59.007Z,95.40
2023-05-15T20:26:31.778Z,95.40
2023-05-15T20:29:03.470Z,95.30
2023-05-15T20:31:35.004Z,95.00
2023-05-15T20:34:08.066Z,94.80
2023-05-15T20:36:39.655Z,95.20
2023-05-15T20:39:14.264Z,95.10
2023-05-15T20:41:47.185Z,94.30
2023-05-15T20:44:18.677Z,93.60
2023-05-15T20:46:49.696Z,93.10
2023-05-15T20:49:20.621Z,92.70
2023-05-15T20:51:52.273Z,92.60
2023-05-15T20:54:23.269Z,93.00
2023-05-15T20:56:56.118Z,93.50
2023-05-15T20:59:27.296Z,93.90
2023-05-15T21:01:58.247Z,93.50
2023-05-15T21:04:29.320Z,93.60
2023-05-15T21:07:00.168Z,93.40
2023-05-15T21:09:31.372Z,93.10
2023-05-15T21:12:05.016Z,93.40
2023-05-15T21:14:36.927Z,93.80
2023-05-15T21:17:08.968Z,94.20
2023-05-15T21:19:40.179Z,93.00
2023-05-15T21:22:11.197Z,93.60
2023-05-15T21:24:42.467Z,93.00
2023-05-15T21:27:15.770Z,92.30
2023-05-15T21:29:46.743Z,93.30
2023-05-15T21:32:17.528Z,92.90
2023-05-15T21:34:48.511Z,92.90
2023-05-15T21:37:19.208Z,94.10
2023-05-15T21:39:50.438Z,92.90
2023-05-15T21:42:23.732Z,93.10
2023-05-15T21:44:55.104Z,93.40
2023-05-15T21:47:25.960Z,93.80
2023-05-15T21:49:57.348Z,92.70
2023-05-15T21:52:28.911Z,92.00
2023-05-15T21:55:00.029Z,92.80
2023-05-15T21:57:33.400Z,92.20
2023-05-15T22:00:05.272Z,91.80
2023-05-15T22:02:36.789Z,91.80
2023-05-15T22:05:09.354Z,91.60
2023-05-15T22:07:41.022Z,91.60
2023-05-15T22:10:17.096Z,91.70
2023-05-15T22:12:50.611Z,92.40
2023-05-15T22:15:21.695Z,92.20
2023-05-15T22:17:53.209Z,92.50
2023-05-15T22:20:25.312Z,93.10
2023-05-15T22:22:56.821Z,93.40
2023-05-15T22:25:28.117Z,94.10
2023-05-15T22:28:00.660Z,92.10
2023-05-15T22:30:31.690Z,93.40
2023-05-15T22:33:02.828Z,92.60
2023-05-15T22:35:34.080Z,91.90
2023-05-15T22:38:06.546Z,91.50
2023-05-15T22:40:38.476Z,93.50
2023-05-15T22:43:11.620Z,92.40
2023-05-15T22:45:43.115Z,92.60
2023-05-15T22:48:14.707Z,92.70
2023-05-15T22:50:46.616Z,92.60
2023-05-15T22:53:18.096Z,93.20
2023-05-15T22:55:48.885Z,92.90
2023-05-15T22:58:23.058Z,92.30
2023-05-15T23:00:54.747Z,90.00
2023-05-15T23:03:25.984Z,89.90
2023-05-15T23:06:11.720Z,88.60
2023-05-15T23:08:42.965Z,88.60
2023-05-15T23:11:14.212Z,88.00
2023-05-15T23:13:47.990Z,87.60
2023-05-15T23:16:19.002Z,87.40
2023-05-15T23:18:49.932Z,89.40
2023-05-15T23:21:20.703Z,89.40
2023-05-15T23:23:51.788Z,89.40
2023-05-15T23:26:22.682Z,88.40
2023-05-15T23:28:55.191Z,88.60
2023-05-15T23:31:26.046Z,89.20
2023-05-15T23:33:57.003Z,90.20
2023-05-15T23:36:27.799Z,89.70
2023-05-15T23:38:58.560Z,90.70
2023-05-15T23:41:29.601Z,89.60
2023-05-15T23:44:02.110Z,89.60
2023-05-15T23:46:32.897Z,90.70
2023-05-15T23:49:04.539Z,90.60
2023-05-15T23:51:35.774Z,90.30
2023-05-15T23:54:06.839Z,88.00
2023-05-15T23:56:37.828Z,87.10
2023-05-15T23:59:10.284Z,89.80
